Portland, Oregon
Traffic Map
Current Weather Conditions
Portland, Oregon
Broken Clouds
Broken Clouds
47°
Feels Like: 47°
Wind Chill: 47° Ceiling: 20000
Heat Index: 47° Visibility: 10mi
Dew Point: 36° Wind: 3mph
Humidity: 66% Direction: 90° (E)
Pressure: 30.37in Gusts: 0mph
Raw Report DataKPDX 060553Z 09003KT 10SM BKN200 08/02 A3037 RMK AO2 SLP285 T00830022 10161 20072 53010
Traffic Incident Summary
Active as of:
Severity:
Category:
InformationThere was an issue retrieving the traffic information for this location. Please try a different location or try again shortly.
Advertisements
Track Severe Weather on mobile